sensor_id;sensor_type;location;lat;lon;timestamp;temperature;humidity
57390;DHT22;43217;52.694;6.214;2023-07-09T00:01:58;23.30;99.90
57390;DHT22;43217;52.694;6.214;2023-07-09T00:04:23;23.20;99.90
57390;DHT22;43217;52.694;6.214;2023-07-09T00:06:50;23.20;99.90
57390;DHT22;43217;52.694;6.214;2023-07-09T00:09:18;23.20;99.90
57390;DHT22;43217;52.694;6.214;2023-07-09T00:11:47;23.20;99.90
57390;DHT22;43217;52.694;6.214;2023-07-09T00:14:15;23.20;99.90
57390;DHT22;43217;52.694;6.214;2023-07-09T00:16:43;23.20;99.90
57390;DHT22;43217;52.694;6.214;2023-07-09T00:19:18;23.20;99.90
57390;DHT22;43217;52.694;6.214;2023-07-09T00:21:45;23.20;99.90
57390;DHT22;43217;52.694;6.214;2023-07-09T00:24:12;23.10;99.90
57390;DHT22;43217;52.694;6.214;2023-07-09T00:26:38;23.10;99.90
57390;DHT22;43217;52.694;6.214;2023-07-09T00:29:12;23.10;99.90
57390;DHT22;43217;52.694;6.214;2023-07-09T00:31:39;23.00;99.90
57390;DHT22;43217;52.694;6.214;2023-07-09T00:34:08;23.00;99.90
57390;DHT22;43217;52.694;6.214;2023-07-09T00:36:37;22.90;99.90
57390;DHT22;43217;52.694;6.214;2023-07-09T00:39:03;22.90;99.90
57390;DHT22;43217;52.694;6.214;2023-07-09T00:41:36;22.80;99.90
57390;DHT22;43217;52.694;6.214;2023-07-09T00:44:28;22.80;99.90
57390;DHT22;43217;52.694;6.214;2023-07-09T00:49:38;22.60;99.90
57390;DHT22;43217;52.694;6.214;2023-07-09T00:52:46;22.60;99.90
57390;DHT22;43217;52.694;6.214;2023-07-09T00:55:18;22.50;99.90
57390;DHT22;43217;52.694;6.214;2023-07-09T00:57:46;22.40;99.90
57390;DHT22;43217;52.694;6.214;2023-07-09T01:00:21;22.40;99.90
57390;DHT22;43217;52.694;6.214;2023-07-09T01:02:48;22.40;99.90
57390;DHT22;43217;52.694;6.214;2023-07-09T01:05:15;22.30;99.90
57390;DHT22;43217;52.694;6.214;2023-07-09T01:07:43;22.30;99.90
57390;DHT22;43217;52.694;6.214;2023-07-09T01:10:13;22.30;99.90
57390;DHT22;43217;52.694;6.214;2023-07-09T01:12:40;22.30;99.90
57390;DHT22;43217;52.694;6.214;2023-07-09T01:15:06;22.20;99.90
57390;DHT22;43217;52.694;6.214;2023-07-09T01:17:33;22.20;99.90
57390;DHT22;43217;52.694;6.214;2023-07-09T01:19:59;22.10;99.90
57390;DHT22;43217;52.694;6.214;2023-07-09T01:22:25;22.10;99.90
57390;DHT22;43217;52.694;6.214;2023-07-09T01:25:03;22.10;99.90
57390;DHT22;43217;52.694;6.214;2023-07-09T01:27:50;22.10;99.90
57390;DHT22;43217;52.694;6.214;2023-07-09T01:30:39;22.00;99.90
57390;DHT22;43217;52.694;6.214;2023-07-09T01:33:07;22.00;99.90
57390;DHT22;43217;52.694;6.214;2023-07-09T01:35:37;21.90;99.90
57390;DHT22;43217;52.694;6.214;2023-07-09T01:38:03;21.90;99.90
57390;DHT22;43217;52.694;6.214;2023-07-09T01:40:32;21.90;99.90
57390;DHT22;43217;52.694;6.214;2023-07-09T01:42:59;21.90;99.90
57390;DHT22;43217;52.694;6.214;2023-07-09T01:45:26;21.80;99.90
57390;DHT22;43217;52.694;6.214;2023-07-09T01:47:52;21.80;99.90
57390;DHT22;43217;52.694;6.214;2023-07-09T01:50:19;21.70;99.90
57390;DHT22;43217;52.694;6.214;2023-07-09T01:52:46;21.70;99.90
57390;DHT22;43217;52.694;6.214;2023-07-09T01:55:13;21.60;99.90
57390;DHT22;43217;52.694;6.214;2023-07-09T01:57:43;21.60;99.90
57390;DHT22;43217;52.694;6.214;2023-07-09T02:00:14;21.60;99.90
57390;DHT22;43217;52.694;6.214;2023-07-09T02:02:41;21.50;99.90
57390;DHT22;43217;52.694;6.214;2023-07-09T02:05:16;21.50;99.90
57390;DHT22;43217;52.694;6.214;2023-07-09T02:07:43;21.50;99.90
57390;DHT22;43217;52.694;6.214;2023-07-09T02:10:09;21.50;99.90
57390;DHT22;43217;52.694;6.214;2023-07-09T02:12:35;21.50;99.90
57390;DHT22;43217;52.694;6.214;2023-07-09T02:15:01;21.40;99.90
57390;DHT22;43217;52.694;6.214;2023-07-09T02:17:27;21.40;99.90
57390;DHT22;43217;52.694;6.214;2023-07-09T02:19:53;21.40;99.90
57390;DHT22;43217;52.694;6.214;2023-07-09T02:22:19;21.40;99.90
57390;DHT22;43217;52.694;6.214;2023-07-09T02:24:44;21.40;99.90
57390;DHT22;43217;52.694;6.214;2023-07-09T02:27:14;21.30;99.90
57390;DHT22;43217;52.694;6.214;2023-07-09T02:29:40;21.40;99.90
57390;DHT22;43217;52.694;6.214;2023-07-09T02:32:06;21.30;99.90
57390;DHT22;43217;52.694;6.214;2023-07-09T02:34:32;21.30;99.90
57390;DHT22;43217;52.694;6.214;2023-07-09T02:36:58;21.30;99.90
57390;DHT22;43217;52.694;6.214;2023-07-09T02:39:25;21.20;99.90
57390;DHT22;43217;52.694;6.214;2023-07-09T02:41:51;21.20;99.90
57390;DHT22;43217;52.694;6.214;2023-07-09T02:44:17;21.20;99.90
57390;DHT22;43217;52.694;6.214;2023-07-09T02:46:43;21.20;99.90
57390;DHT22;43217;52.694;6.214;2023-07-09T02:49:11;21.10;99.90
57390;DHT22;43217;52.694;6.214;2023-07-09T02:51:37;21.10;99.90
57390;DHT22;43217;52.694;6.214;2023-07-09T02:54:04;21.10;99.90
57390;DHT22;43217;52.694;6.214;2023-07-09T02:56:30;21.00;99.90
57390;DHT22;43217;52.694;6.214;2023-07-09T02:58:55;21.00;99.90
57390;DHT22;43217;52.694;6.214;2023-07-09T03:01:21;21.00;99.90
57390;DHT22;43217;52.694;6.214;2023-07-09T03:03:54;21.00;99.90
57390;DHT22;43217;52.694;6.214;2023-07-09T03:06:21;20.90;99.90
57390;DHT22;43217;52.694;6.214;2023-07-09T03:08:47;20.90;99.90
57390;DHT22;43217;52.694;6.214;2023-07-09T03:11:14;20.90;99.90
57390;DHT22;43217;52.694;6.214;2023-07-09T03:13:41;20.90;99.90
57390;DHT22;43217;52.694;6.214;2023-07-09T03:16:07;20.90;99.90
57390;DHT22;43217;52.694;6.214;2023-07-09T03:18:32;20.90;99.90
57390;DHT22;43217;52.694;6.214;2023-07-09T03:20:58;20.90;99.90
57390;DHT22;43217;52.694;6.214;2023-07-09T03:23:24;20.80;99.90
57390;DHT22;43217;52.694;6.214;2023-07-09T03:25:50;20.90;99.90
57390;DHT22;43217;52.694;6.214;2023-07-09T03:28:16;20.90;99.90
57390;DHT22;43217;52.694;6.214;2023-07-09T03:30:46;20.90;99.90
57390;DHT22;43217;52.694;6.214;2023-07-09T03:33:13;20.90;99.90
57390;DHT22;43217;52.694;6.214;2023-07-09T03:35:39;20.90;99.90
57390;DHT22;43217;52.694;6.214;2023-07-09T03:38:06;20.80;99.90
57390;DHT22;43217;52.694;6.214;2023-07-09T03:40:32;20.80;99.90
57390;DHT22;43217;52.694;6.214;2023-07-09T03:42:57;20.80;99.90
57390;DHT22;43217;52.694;6.214;2023-07-09T03:45:23;20.80;99.90
57390;DHT22;43217;52.694;6.214;2023-07-09T03:47:49;20.90;99.90
57390;DHT22;43217;52.694;6.214;2023-07-09T03:50:15;20.80;99.90
57390;DHT22;43217;52.694;6.214;2023-07-09T03:52:40;20.80;99.90
57390;DHT22;43217;52.694;6.214;2023-07-09T03:55:07;20.90;99.90
57390;DHT22;43217;52.694;6.214;2023-07-09T03:57:34;20.80;99.90
57390;DHT22;43217;52.694;6.214;2023-07-09T04:00:01;20.80;99.90
57390;DHT22;43217;52.694;6.214;2023-07-09T04:02:27;20.90;99.90
57390;DHT22;43217;52.694;6.214;2023-07-09T04:04:53;20.80;99.90
57390;DHT22;43217;52.694;6.214;2023-07-09T04:07:19;20.80;99.90
57390;DHT22;43217;52.694;6.214;2023-07-09T04:09:45;20.90;99.90
57390;DHT22;43217;52.694;6.214;2023-07-09T04:12:11;20.90;99.90
57390;DHT22;43217;52.694;6.214;2023-07-09T04:14:37;20.90;99.90
57390;DHT22;43217;52.694;6.214;2023-07-09T04:17:03;20.90;99.90
57390;DHT22;43217;52.694;6.214;2023-07-09T04:19:29;21.00;99.90
57390;DHT22;43217;52.694;6.214;2023-07-09T04:21:55;21.00;99.90
57390;DHT22;43217;52.694;6.214;2023-07-09T04:24:21;21.00;99.90
57390;DHT22;43217;52.694;6.214;2023-07-09T04:26:47;21.00;99.90
57390;DHT22;43217;52.694;6.214;2023-07-09T04:29:13;21.10;99.90
57390;DHT22;43217;52.694;6.214;2023-07-09T04:31:41;21.10;99.90
57390;DHT22;43217;52.694;6.214;2023-07-09T04:34:08;21.20;99.90
57390;DHT22;43217;52.694;6.214;2023-07-09T04:36:34;21.20;99.90
57390;DHT22;43217;52.694;6.214;2023-07-09T04:39:00;21.20;99.90
57390;DHT22;43217;52.694;6.214;2023-07-09T04:41:26;21.30;99.90
57390;DHT22;43217;52.694;6.214;2023-07-09T04:43:52;21.40;99.90
57390;DHT22;43217;52.694;6.214;2023-07-09T04:46:21;21.40;99.90
57390;DHT22;43217;52.694;6.214;2023-07-09T04:48:47;21.50;99.90
57390;DHT22;43217;52.694;6.214;2023-07-09T04:51:14;21.60;99.90
57390;DHT22;43217;52.694;6.214;2023-07-09T04:53:39;21.60;99.90
57390;DHT22;43217;52.694;6.214;2023-07-09T04:56:06;21.60;99.90
57390;DHT22;43217;52.694;6.214;2023-07-09T04:58:33;21.60;99.90
57390;DHT22;43217;52.694;6.214;2023-07-09T05:00:59;21.70;99.90
57390;DHT22;43217;52.694;6.214;2023-07-09T05:03:26;21.70;99.90
57390;DHT22;43217;52.694;6.214;2023-07-09T05:05:52;21.60;99.90
57390;DHT22;43217;52.694;6.214;2023-07-09T05:08:18;21.70;99.90
57390;DHT22;43217;52.694;6.214;2023-07-09T05:10:49;21.70;99.90
57390;DHT22;43217;52.694;6.214;2023-07-09T05:13:16;21.70;99.90
57390;DHT22;43217;52.694;6.214;2023-07-09T05:15:45;21.70;99.90
57390;DHT22;43217;52.694;6.214;2023-07-09T05:18:12;21.80;99.90
57390;DHT22;43217;52.694;6.214;2023-07-09T05:20:38;21.70;99.90
57390;DHT22;43217;52.694;6.214;2023-07-09T05:23:04;21.70;99.90
57390;DHT22;43217;52.694;6.214;2023-07-09T05:25:29;21.70;99.90
57390;DHT22;43217;52.694;6.214;2023-07-09T05:27:55;21.70;99.90
57390;DHT22;43217;52.694;6.214;2023-07-09T05:30:21;21.70;99.90
57390;DHT22;43217;52.694;6.214;2023-07-09T05:32:47;21.70;99.90
57390;DHT22;43217;52.694;6.214;2023-07-09T05:35:13;21.80;99.90
57390;DHT22;43217;52.694;6.214;2023-07-09T05:37:39;21.80;99.90
57390;DHT22;43217;52.694;6.214;2023-07-09T05:40:06;21.80;99.90
57390;DHT22;43217;52.694;6.214;2023-07-09T05:42:31;21.90;99.90
57390;DHT22;43217;52.694;6.214;2023-07-09T05:44:57;21.90;99.90
57390;DHT22;43217;52.694;6.214;2023-07-09T05:47:24;21.90;99.90
57390;DHT22;43217;52.694;6.214;2023-07-09T05:49:49;22.00;99.90
57390;DHT22;43217;52.694;6.214;2023-07-09T05:52:21;22.10;99.90
57390;DHT22;43217;52.694;6.214;2023-07-09T05:54:51;22.20;99.90
57390;DHT22;43217;52.694;6.214;2023-07-09T05:57:17;22.30;99.90
57390;DHT22;43217;52.694;6.214;2023-07-09T05:59:43;22.40;99.90
57390;DHT22;43217;52.694;6.214;2023-07-09T06:02:13;22.40;99.90
57390;DHT22;43217;52.694;6.214;2023-07-09T06:04:39;22.50;99.90
57390;DHT22;43217;52.694;6.214;2023-07-09T06:07:05;22.60;99.90
57390;DHT22;43217;52.694;6.214;2023-07-09T06:09:31;22.70;99.90
57390;DHT22;43217;52.694;6.214;2023-07-09T06:11:57;22.80;99.90
57390;DHT22;43217;52.694;6.214;2023-07-09T06:14:23;22.90;99.90
57390;DHT22;43217;52.694;6.214;2023-07-09T06:16:49;22.90;99.90
57390;DHT22;43217;52.694;6.214;2023-07-09T06:19:14;23.00;99.90
57390;DHT22;43217;52.694;6.214;2023-07-09T06:21:40;23.10;99.90
57390;DHT22;43217;52.694;6.214;2023-07-09T06:24:07;23.20;99.90
57390;DHT22;43217;52.694;6.214;2023-07-09T06:26:33;23.30;99.90
57390;DHT22;43217;52.694;6.214;2023-07-09T06:28:59;23.30;99.90
57390;DHT22;43217;52.694;6.214;2023-07-09T06:31:25;23.50;99.90
57390;DHT22;43217;52.694;6.214;2023-07-09T06:33:51;23.60;99.90
57390;DHT22;43217;52.694;6.214;2023-07-09T06:36:18;23.70;99.90
57390;DHT22;43217;52.694;6.214;2023-07-09T06:38:44;23.80;99.90
57390;DHT22;43217;52.694;6.214;2023-07-09T06:41:10;23.90;99.90
57390;DHT22;43217;52.694;6.214;2023-07-09T06:43:36;24.20;99.90
57390;DHT22;43217;52.694;6.214;2023-07-09T06:46:06;24.50;99.90
57390;DHT22;43217;52.694;6.214;2023-07-09T06:48:33;24.90;99.90
57390;DHT22;43217;52.694;6.214;2023-07-09T06:51:00;25.10;99.90
57390;DHT22;43217;52.694;6.214;2023-07-09T06:53:27;25.30;99.90
57390;DHT22;43217;52.694;6.214;2023-07-09T06:55:53;25.80;99.90
57390;DHT22;43217;52.694;6.214;2023-07-09T06:58:21;26.30;99.90
57390;DHT22;43217;52.694;6.214;2023-07-09T07:00:48;26.90;99.90
57390;DHT22;43217;52.694;6.214;2023-07-09T07:03:15;27.30;99.90
57390;DHT22;43217;52.694;6.214;2023-07-09T07:05:45;27.60;99.90
57390;DHT22;43217;52.694;6.214;2023-07-09T07:08:13;28.00;99.90
57390;DHT22;43217;52.694;6.214;2023-07-09T07:10:40;28.60;99.90
57390;DHT22;43217;52.694;6.214;2023-07-09T07:13:05;29.10;99.90
57390;DHT22;43217;52.694;6.214;2023-07-09T07:15:31;29.20;99.90
57390;DHT22;43217;52.694;6.214;2023-07-09T07:17:57;29.20;99.90
57390;DHT22;43217;52.694;6.214;2023-07-09T07:20:23;29.30;99.90
57390;DHT22;43217;52.694;6.214;2023-07-09T07:22:49;29.60;99.90
57390;DHT22;43217;52.694;6.214;2023-07-09T07:25:15;29.70;99.50
57390;DHT22;43217;52.694;6.214;2023-07-09T07:27:40;29.90;99.30
57390;DHT22;43217;52.694;6.214;2023-07-09T07:30:07;30.10;98.40
57390;DHT22;43217;52.694;6.214;2023-07-09T07:32:35;30.40;97.20
57390;DHT22;43217;52.694;6.214;2023-07-09T07:35:02;30.50;96.80
57390;DHT22;43217;52.694;6.214;2023-07-09T07:37:28;30.50;96.40
57390;DHT22;43217;52.694;6.214;2023-07-09T07:39:53;30.70;95.90
57390;DHT22;43217;52.694;6.214;2023-07-09T07:42:19;30.60;95.40
57390;DHT22;43217;52.694;6.214;2023-07-09T07:44:45;30.60;95.00
57390;DHT22;43217;52.694;6.214;2023-07-09T07:47:11;30.80;93.80
57390;DHT22;43217;52.694;6.214;2023-07-09T07:49:37;30.90;92.60
57390;DHT22;43217;52.694;6.214;2023-07-09T07:52:04;31.10;91.60
57390;DHT22;43217;52.694;6.214;2023-07-09T07:54:30;31.50;91.00
57390;DHT22;43217;52.694;6.214;2023-07-09T07:57:00;31.70;90.90
57390;DHT22;43217;52.694;6.214;2023-07-09T07:59:25;31.90;88.50
57390;DHT22;43217;52.694;6.214;2023-07-09T08:01:51;31.90;86.60
57390;DHT22;43217;52.694;6.214;2023-07-09T08:04:17;32.00;83.70
57390;DHT22;43217;52.694;6.214;2023-07-09T08:06:42;32.20;82.80
57390;DHT22;43217;52.694;6.214;2023-07-09T08:09:08;32.40;81.90
57390;DHT22;43217;52.694;6.214;2023-07-09T08:11:34;32.50;82.70
57390;DHT22;43217;52.694;6.214;2023-07-09T08:14:00;32.80;83.10
57390;DHT22;43217;52.694;6.214;2023-07-09T08:16:26;33.00;82.00
57390;DHT22;43217;52.694;6.214;2023-07-09T08:18:52;33.30;80.70
57390;DHT22;43217;52.694;6.214;2023-07-09T08:21:18;33.30;79.90
57390;DHT22;43217;52.694;6.214;2023-07-09T08:23:45;33.30;79.40
57390;DHT22;43217;52.694;6.214;2023-07-09T08:26:11;33.30;80.10
57390;DHT22;43217;52.694;6.214;2023-07-09T08:28:37;33.40;80.00
57390;DHT22;43217;52.694;6.214;2023-07-09T08:31:03;33.40;78.80
57390;DHT22;43217;52.694;6.214;2023-07-09T08:33:29;33.50;77.10
57390;DHT22;43217;52.694;6.214;2023-07-09T08:35:55;33.50;78.70
57390;DHT22;43217;52.694;6.214;2023-07-09T08:38:23;33.60;79.20
57390;DHT22;43217;52.694;6.214;2023-07-09T08:43:44;33.80;76.40
57390;DHT22;43217;52.694;6.214;2023-07-09T08:46:24;34.00;76.70
57390;DHT22;43217;52.694;6.214;2023-07-09T08:48:53;34.00;76.70
57390;DHT22;43217;52.694;6.214;2023-07-09T08:51:28;33.70;76.30
57390;DHT22;43217;52.694;6.214;2023-07-09T08:54:00;33.60;77.80
57390;DHT22;43217;52.694;6.214;2023-07-09T08:56:28;33.70;76.60
57390;DHT22;43217;52.694;6.214;2023-07-09T08:58:55;33.70;76.40
57390;DHT22;43217;52.694;6.214;2023-07-09T09:01:49;33.60;75.90
57390;DHT22;43217;52.694;6.214;2023-07-09T09:04:22;33.70;75.00
57390;DHT22;43217;52.694;6.214;2023-07-09T09:06:56;33.60;74.90
57390;DHT22;43217;52.694;6.214;2023-07-09T09:09:39;33.70;75.30
57390;DHT22;43217;52.694;6.214;2023-07-09T09:14:43;33.60;76.70
57390;DHT22;43217;52.694;6.214;2023-07-09T09:17:13;33.90;77.10
57390;DHT22;43217;52.694;6.214;2023-07-09T09:19:50;34.00;76.10
57390;DHT22;43217;52.694;6.214;2023-07-09T09:22:22;34.00;75.00
57390;DHT22;43217;52.694;6.214;2023-07-09T09:27:49;33.90;73.70
57390;DHT22;43217;52.694;6.214;2023-07-09T09:30:22;33.80;74.50
57390;DHT22;43217;52.694;6.214;2023-07-09T09:32:54;33.80;75.10
57390;DHT22;43217;52.694;6.214;2023-07-09T09:35:24;33.90;75.00
57390;DHT22;43217;52.694;6.214;2023-07-09T09:37:53;34.00;74.20
57390;DHT22;43217;52.694;6.214;2023-07-09T09:40:21;34.20;73.80
57390;DHT22;43217;52.694;6.214;2023-07-09T09:42:50;34.10;73.70
57390;DHT22;43217;52.694;6.214;2023-07-09T09:45:18;34.00;73.00
57390;DHT22;43217;52.694;6.214;2023-07-09T09:47:45;34.00;74.60
57390;DHT22;43217;52.694;6.214;2023-07-09T09:50:20;33.90;73.40
57390;DHT22;43217;52.694;6.214;2023-07-09T09:52:47;33.90;74.10
57390;DHT22;43217;52.694;6.214;2023-07-09T09:55:24;33.90;74.00
57390;DHT22;43217;52.694;6.214;2023-07-09T09:57:52;34.10;74.00
57390;DHT22;43217;52.694;6.214;2023-07-09T10:00:22;34.20;72.60
57390;DHT22;43217;52.694;6.214;2023-07-09T10:02:48;34.20;72.20
57390;DHT22;43217;52.694;6.214;2023-07-09T10:05:14;34.30;72.40
57390;DHT22;43217;52.694;6.214;2023-07-09T10:07:46;34.40;73.00
57390;DHT22;43217;52.694;6.214;2023-07-09T10:10:15;34.30;72.00
57390;DHT22;43217;52.694;6.214;2023-07-09T10:12:51;34.30;72.30
57390;DHT22;43217;52.694;6.214;2023-07-09T10:23:59;34.80;71.20
57390;DHT22;43217;52.694;6.214;2023-07-09T10:26:51;34.80;70.00
57390;DHT22;43217;52.694;6.214;2023-07-09T10:32:39;34.70;70.00
57390;DHT22;43217;52.694;6.214;2023-07-09T10:35:04;34.70;68.20
57390;DHT22;43217;52.694;6.214;2023-07-09T10:40:30;34.50;69.30
57390;DHT22;43217;52.694;6.214;2023-07-09T10:43:00;34.50;69.70
57390;DHT22;43217;52.694;6.214;2023-07-09T10:45:54;34.50;68.40
57390;DHT22;43217;52.694;6.214;2023-07-09T10:48:37;34.60;67.80
57390;DHT22;43217;52.694;6.214;2023-07-09T10:51:04;34.60;68.20
57390;DHT22;43217;52.694;6.214;2023-07-09T10:54:05;34.70;67.80
57390;DHT22;43217;52.694;6.214;2023-07-09T10:56:34;34.70;68.40
57390;DHT22;43217;52.694;6.214;2023-07-09T11:02:04;34.70;67.40
57390;DHT22;43217;52.694;6.214;2023-07-09T11:05:00;34.50;68.20
57390;DHT22;43217;52.694;6.214;2023-07-09T11:07:37;34.50;68.00
57390;DHT22;43217;52.694;6.214;2023-07-09T11:12:59;34.20;68.60
57390;DHT22;43217;52.694;6.214;2023-07-09T11:15:41;34.30;68.80
57390;DHT22;43217;52.694;6.214;2023-07-09T11:18:18;34.50;69.10
57390;DHT22;43217;52.694;6.214;2023-07-09T11:20:46;34.60;68.90
57390;DHT22;43217;52.694;6.214;2023-07-09T11:23:21;34.40;69.00
57390;DHT22;43217;52.694;6.214;2023-07-09T11:26:00;34.40;69.20
57390;DHT22;43217;52.694;6.214;2023-07-09T11:28:34;34.20;69.70
57390;DHT22;43217;52.694;6.214;2023-07-09T11:31:06;34.20;70.00
57390;DHT22;43217;52.694;6.214;2023-07-09T11:33:32;34.30;70.40
57390;DHT22;43217;52.694;6.214;2023-07-09T11:36:13;34.30;70.10
57390;DHT22;43217;52.694;6.214;2023-07-09T11:38:45;34.50;70.70
57390;DHT22;43217;52.694;6.214;2023-07-09T11:44:18;34.50;69.80
57390;DHT22;43217;52.694;6.214;2023-07-09T11:49:58;34.40;67.80
57390;DHT22;43217;52.694;6.214;2023-07-09T11:52:33;34.50;67.60
57390;DHT22;43217;52.694;6.214;2023-07-09T11:58:00;34.40;67.60
57390;DHT22;43217;52.694;6.214;2023-07-09T12:00:36;34.40;67.90
57390;DHT22;43217;52.694;6.214;2023-07-09T12:03:03;34.40;67.90
57390;DHT22;43217;52.694;6.214;2023-07-09T12:05:29;34.30;67.30
57390;DHT22;43217;52.694;6.214;2023-07-09T12:07:59;34.40;67.30
57390;DHT22;43217;52.694;6.214;2023-07-09T12:10:28;34.40;67.40
57390;DHT22;43217;52.694;6.214;2023-07-09T12:12:59;34.40;68.00
57390;DHT22;43217;52.694;6.214;2023-07-09T12:15:27;34.40;67.30
57390;DHT22;43217;52.694;6.214;2023-07-09T12:17:59;34.20;67.20
57390;DHT22;43217;52.694;6.214;2023-07-09T12:20:26;34.20;67.50
57390;DHT22;43217;52.694;6.214;2023-07-09T12:22:54;34.20;66.90
57390;DHT22;43217;52.694;6.214;2023-07-09T12:25:24;34.20;67.40
57390;DHT22;43217;52.694;6.214;2023-07-09T12:27:51;34.00;67.10
57390;DHT22;43217;52.694;6.214;2023-07-09T12:30:18;33.90;67.50
57390;DHT22;43217;52.694;6.214;2023-07-09T12:32:49;33.80;68.10
57390;DHT22;43217;52.694;6.214;2023-07-09T12:35:16;33.90;68.60
57390;DHT22;43217;52.694;6.214;2023-07-09T12:37:43;34.00;66.80
57390;DHT22;43217;52.694;6.214;2023-07-09T12:40:15;34.00;65.60
57390;DHT22;43217;52.694;6.214;2023-07-09T12:42:42;33.90;66.20
57390;DHT22;43217;52.694;6.214;2023-07-09T12:45:17;33.80;66.50
57390;DHT22;43217;52.694;6.214;2023-07-09T12:47:45;33.80;66.30
57390;DHT22;43217;52.694;6.214;2023-07-09T12:52:48;33.50;67.80
57390;DHT22;43217;52.694;6.214;2023-07-09T12:55:23;33.50;68.00
57390;DHT22;43217;52.694;6.214;2023-07-09T12:57:49;33.50;67.10
57390;DHT22;43217;52.694;6.214;2023-07-09T13:00:16;33.40;67.10
57390;DHT22;43217;52.694;6.214;2023-07-09T13:02:43;33.40;67.70
57390;DHT22;43217;52.694;6.214;2023-07-09T13:05:23;33.30;68.10
57390;DHT22;43217;52.694;6.214;2023-07-09T13:08:02;33.20;68.00
57390;DHT22;43217;52.694;6.214;2023-07-09T13:10:30;33.20;68.00
57390;DHT22;43217;52.694;6.214;2023-07-09T13:13:01;33.00;68.20
57390;DHT22;43217;52.694;6.214;2023-07-09T13:18:06;32.90;69.00
57390;DHT22;43217;52.694;6.214;2023-07-09T13:20:36;32.80;69.00
57390;DHT22;43217;52.694;6.214;2023-07-09T13:23:23;32.70;71.90
57390;DHT22;43217;52.694;6.214;2023-07-09T13:25:50;32.60;73.00
57390;DHT22;43217;52.694;6.214;2023-07-09T13:28:23;32.50;76.00
57390;DHT22;43217;52.694;6.214;2023-07-09T13:30:56;32.40;79.10
57390;DHT22;43217;52.694;6.214;2023-07-09T13:33:23;32.40;82.10
57390;DHT22;43217;52.694;6.214;2023-07-09T13:35:49;32.40;84.80
57390;DHT22;43217;52.694;6.214;2023-07-09T13:38:20;32.40;82.80
57390;DHT22;43217;52.694;6.214;2023-07-09T13:40:48;32.50;81.40
57390;DHT22;43217;52.694;6.214;2023-07-09T13:43:20;32.70;79.90
57390;DHT22;43217;52.694;6.214;2023-07-09T13:45:46;32.80;79.60
57390;DHT22;43217;52.694;6.214;2023-07-09T13:48:17;32.90;79.70
57390;DHT22;43217;52.694;6.214;2023-07-09T13:50:44;33.00;78.90
57390;DHT22;43217;52.694;6.214;2023-07-09T13:53:19;33.00;77.70
57390;DHT22;43217;52.694;6.214;2023-07-09T13:55:46;33.10;75.90
57390;DHT22;43217;52.694;6.214;2023-07-09T13:58:14;33.10;74.10
57390;DHT22;43217;52.694;6.214;2023-07-09T14:00:42;33.00;77.00
57390;DHT22;43217;52.694;6.214;2023-07-09T14:03:20;32.90;78.00
57390;DHT22;43217;52.694;6.214;2023-07-09T14:05:47;32.90;78.60
57390;DHT22;43217;52.694;6.214;2023-07-09T14:08:12;32.90;79.00
57390;DHT22;43217;52.694;6.214;2023-07-09T14:10:39;32.80;77.60
57390;DHT22;43217;52.694;6.214;2023-07-09T14:13:05;32.70;77.60
57390;DHT22;43217;52.694;6.214;2023-07-09T14:15:30;32.50;79.10
57390;DHT22;43217;52.694;6.214;2023-07-09T14:17:56;32.30;79.00
57390;DHT22;43217;52.694;6.214;2023-07-09T14:20:23;32.10;80.30
57390;DHT22;43217;52.694;6.214;2023-07-09T14:22:49;32.00;81.20
57390;DHT22;43217;52.694;6.214;2023-07-09T14:25:19;31.90;82.50
57390;DHT22;43217;52.694;6.214;2023-07-09T14:27:45;31.70;84.20
57390;DHT22;43217;52.694;6.214;2023-07-09T14:30:19;31.60;86.00
57390;DHT22;43217;52.694;6.214;2023-07-09T14:32:47;31.40;87.20
57390;DHT22;43217;52.694;6.214;2023-07-09T14:35:19;31.10;86.20
57390;DHT22;43217;52.694;6.214;2023-07-09T14:37:46;30.80;83.70
57390;DHT22;43217;52.694;6.214;2023-07-09T14:40:13;30.50;86.70
57390;DHT22;43217;52.694;6.214;2023-07-09T14:42:40;30.10;91.30
57390;DHT22;43217;52.694;6.214;2023-07-09T14:45:19;29.60;95.00
57390;DHT22;43217;52.694;6.214;2023-07-09T14:47:46;29.20;99.90
57390;DHT22;43217;52.694;6.214;2023-07-09T14:50:12;28.50;99.90
57390;DHT22;43217;52.694;6.214;2023-07-09T14:52:38;28.00;99.90
57390;DHT22;43217;52.694;6.214;2023-07-09T14:55:05;27.50;99.90
57390;DHT22;43217;52.694;6.214;2023-07-09T14:57:33;27.10;99.90
57390;DHT22;43217;52.694;6.214;2023-07-09T14:59:59;26.80;99.90
57390;DHT22;43217;52.694;6.214;2023-07-09T15:02:39;26.50;99.90
57390;DHT22;43217;52.694;6.214;2023-07-09T15:05:22;26.30;99.90
57390;DHT22;43217;52.694;6.214;2023-07-09T15:07:48;26.10;99.90
57390;DHT22;43217;52.694;6.214;2023-07-09T15:10:25;25.90;99.90
57390;DHT22;43217;52.694;6.214;2023-07-09T15:12:52;25.70;99.90
57390;DHT22;43217;52.694;6.214;2023-07-09T15:15:27;25.40;99.90
57390;DHT22;43217;52.694;6.214;2023-07-09T15:17:55;25.20;99.90
57390;DHT22;43217;52.694;6.214;2023-07-09T15:20:26;25.00;99.90
57390;DHT22;43217;52.694;6.214;2023-07-09T15:22:53;24.90;99.90
57390;DHT22;43217;52.694;6.214;2023-07-09T15:25:21;24.70;99.90
57390;DHT22;43217;52.694;6.214;2023-07-09T15:27:52;24.60;99.90
57390;DHT22;43217;52.694;6.214;2023-07-09T15:30:23;24.40;99.90
57390;DHT22;43217;52.694;6.214;2023-07-09T15:32:50;24.40;99.90
57390;DHT22;43217;52.694;6.214;2023-07-09T15:35:17;24.40;99.90
57390;DHT22;43217;52.694;6.214;2023-07-09T15:37:44;24.30;99.90
57390;DHT22;43217;52.694;6.214;2023-07-09T15:40:19;24.30;99.90
57390;DHT22;43217;52.694;6.214;2023-07-09T15:42:50;24.20;99.90
57390;DHT22;43217;52.694;6.214;2023-07-09T15:45:17;24.10;99.90
57390;DHT22;43217;52.694;6.214;2023-07-09T15:47:45;24.00;99.90
57390;DHT22;43217;52.694;6.214;2023-07-09T15:50:20;24.00;99.90
57390;DHT22;43217;52.694;6.214;2023-07-09T15:52:46;23.90;99.90
57390;DHT22;43217;52.694;6.214;2023-07-09T15:55:18;23.90;99.90
57390;DHT22;43217;52.694;6.214;2023-07-09T15:57:45;23.80;99.90
57390;DHT22;43217;52.694;6.214;2023-07-09T16:00:24;23.70;99.90
57390;DHT22;43217;52.694;6.214;2023-07-09T16:02:51;23.70;99.90
57390;DHT22;43217;52.694;6.214;2023-07-09T16:05:25;23.70;99.90
57390;DHT22;43217;52.694;6.214;2023-07-09T16:07:53;23.70;99.90
57390;DHT22;43217;52.694;6.214;2023-07-09T16:10:20;23.80;99.90
57390;DHT22;43217;52.694;6.214;2023-07-09T16:12:47;23.60;99.90
57390;DHT22;43217;52.694;6.214;2023-07-09T16:15:18;23.50;99.90
57390;DHT22;43217;52.694;6.214;2023-07-09T16:17:45;23.30;99.90
57390;DHT22;43217;52.694;6.214;2023-07-09T16:20:13;23.20;99.90
57390;DHT22;43217;52.694;6.214;2023-07-09T16:22:45;23.10;99.90
57390;DHT22;43217;52.694;6.214;2023-07-09T16:25:21;23.00;99.90
57390;DHT22;43217;52.694;6.214;2023-07-09T16:27:48;23.00;99.90